createdAt,value
2019-02-15T00:01:43.417Z,4.91
2019-02-15T00:04:11.672Z,4.90
2019-02-15T00:06:39.962Z,4.90
2019-02-15T00:09:08.224Z,4.84
2019-02-15T00:11:36.529Z,4.84
2019-02-15T00:14:04.853Z,4.85
2019-02-15T00:16:33.120Z,4.87
2019-02-15T00:19:05.719Z,4.84
2019-02-15T00:21:34.086Z,4.75
2019-02-15T00:24:02.380Z,4.65
2019-02-15T00:26:30.633Z,4.61
2019-02-15T00:28:58.912Z,4.65
2019-02-15T00:31:27.198Z,4.68
2019-02-15T00:33:55.469Z,4.64
2019-02-15T00:36:23.730Z,4.64
2019-02-15T00:38:51.990Z,4.62
2019-02-15T00:41:20.285Z,4.59
2019-02-15T00:43:48.577Z,4.60
2019-02-15T00:46:21.529Z,4.63
2019-02-15T00:48:49.820Z,4.67
2019-02-15T00:51:36.194Z,4.64
2019-02-15T00:54:09.119Z,4.66
2019-02-15T00:56:39.011Z,4.69
2019-02-15T00:59:08.918Z,4.72
2019-02-15T01:01:50.716Z,4.71
2019-02-15T01:04:29.349Z,4.68
2019-02-15T01:07:11.317Z,4.68
2019-02-15T01:09:44.253Z,4.64
2019-02-15T01:12:23.254Z,4.68
2019-02-15T01:14:51.544Z,4.68
2019-02-15T01:17:19.798Z,4.71
2019-02-15T01:19:48.084Z,4.71
2019-02-15T01:22:16.340Z,4.71
2019-02-15T01:24:44.635Z,4.68
2019-02-15T01:27:17.010Z,4.62
2019-02-15T01:29:58.976Z,4.58
2019-02-15T01:32:37.645Z,4.59
2019-02-15T01:35:07.574Z,4.60
2019-02-15T01:37:49.399Z,4.57
2019-02-15T01:40:19.298Z,4.55
2019-02-15T01:42:52.201Z,4.55
2019-02-15T01:45:24.852Z,4.52
2019-02-15T01:47:53.167Z,4.48
2019-02-15T01:50:21.422Z,4.44
2019-02-15T01:52:49.695Z,4.48
2019-02-15T01:55:17.983Z,4.50
2019-02-15T01:57:46.286Z,4.47
2019-02-15T02:00:16.120Z,4.50
2019-02-15T02:02:44.378Z,4.54
2019-02-15T02:05:12.669Z,4.55
2019-02-15T02:07:40.931Z,4.50
2019-02-15T02:10:10.317Z,4.47
2019-02-15T02:12:38.574Z,4.50
2019-02-15T02:15:08.720Z,4.50
2019-02-15T02:17:37.009Z,4.52
2019-02-15T02:20:08.017Z,4.48
2019-02-15T02:22:36.276Z,4.43
2019-02-15T02:25:05.802Z,4.32
2019-02-15T02:27:34.060Z,4.26
2019-02-15T02:30:02.426Z,4.23
2019-02-15T02:32:30.680Z,4.17
2019-02-15T02:34:58.977Z,4.23
2019-02-15T02:37:27.272Z,4.26
2019-02-15T02:39:55.536Z,4.29
2019-02-15T02:42:23.800Z,4.34
2019-02-15T02:44:52.070Z,4.38
2019-02-15T02:47:20.356Z,4.40
2019-02-15T02:49:48.614Z,4.43
2019-02-15T02:52:16.908Z,4.46
2019-02-15T02:54:45.169Z,4.49
2019-02-15T02:57:13.431Z,4.51
2019-02-15T02:59:41.706Z,4.48
2019-02-15T03:02:09.971Z,4.52
2019-02-15T03:04:38.267Z,4.50
2019-02-15T03:07:06.534Z,4.46
2019-02-15T03:09:34.821Z,4.48
2019-02-15T03:12:03.098Z,4.47
2019-02-15T03:14:31.390Z,4.47
2019-02-15T03:16:59.670Z,4.49
2019-02-15T03:19:27.925Z,4.45
2019-02-15T03:21:56.179Z,4.47
2019-02-15T03:24:24.467Z,4.48
2019-02-15T03:26:52.721Z,4.44
2019-02-15T03:29:21.001Z,4.47
2019-02-15T03:31:49.257Z,4.46
2019-02-15T03:34:17.550Z,4.51
2019-02-15T03:36:50.146Z,4.53
2019-02-15T03:39:20.042Z,4.54
2019-02-15T03:41:48.335Z,4.58
2019-02-15T03:44:22.267Z,4.61
2019-02-15T03:46:46.610Z,4.64
2019-02-15T03:49:14.875Z,4.64
2019-02-15T03:51:43.171Z,4.63
2019-02-15T03:54:11.422Z,4.63
2019-02-15T03:56:39.684Z,4.63
2019-02-15T03:59:07.978Z,4.59
2019-02-15T04:01:36.235Z,4.59
2019-02-15T04:04:04.527Z,4.60
2019-02-15T04:06:32.772Z,4.62
2019-02-15T04:09:01.193Z,4.60
2019-02-15T04:11:29.445Z,4.59
2019-02-15T04:13:57.703Z,4.61
2019-02-15T04:16:26.005Z,4.63
2019-02-15T04:18:54.249Z,4.60
2019-02-15T04:21:22.507Z,4.61
2019-02-15T04:23:50.921Z,4.62
2019-02-15T04:26:19.173Z,4.62
2019-02-15T04:28:47.456Z,4.60
2019-02-15T04:31:15.752Z,4.58
2019-02-15T04:33:44.021Z,4.60
2019-02-15T04:36:12.309Z,4.58
2019-02-15T04:38:40.563Z,4.56
2019-02-15T04:41:08.817Z,4.56
2019-02-15T04:43:37.103Z,4.52
2019-02-15T04:46:05.394Z,4.48
2019-02-15T04:48:33.713Z,4.46
2019-02-15T04:51:01.975Z,4.39
2019-02-15T04:53:30.210Z,4.41
2019-02-15T04:55:58.622Z,4.38
2019-02-15T04:58:26.896Z,4.33
2019-02-15T05:00:55.156Z,4.29
2019-02-15T05:03:23.449Z,4.22
2019-02-15T05:05:51.719Z,4.19
2019-02-15T05:08:19.987Z,4.17
2019-02-15T05:10:48.281Z,4.12
2019-02-15T05:13:16.521Z,4.04
2019-02-15T05:15:44.852Z,4.01
2019-02-15T05:18:13.100Z,4.01
2019-02-15T05:20:41.347Z,3.98
2019-02-15T05:23:09.667Z,3.94
2019-02-15T05:25:37.886Z,3.93
2019-02-15T05:28:08.745Z,3.81
2019-02-15T05:30:36.156Z,3.74
2019-02-15T05:33:04.409Z,3.75
2019-02-15T05:35:32.706Z,3.79
2019-02-15T05:38:00.959Z,3.80
2019-02-15T05:40:29.246Z,3.80
2019-02-15T05:42:57.563Z,3.81
2019-02-15T05:45:25.835Z,3.77
2019-02-15T05:47:54.121Z,3.70
2019-02-15T05:50:22.372Z,3.68
2019-02-15T05:52:50.664Z,3.68
2019-02-15T05:55:18.924Z,3.72
2019-02-15T05:57:47.208Z,3.71
2019-02-15T06:00:15.452Z,3.66
2019-02-15T06:02:43.736Z,3.61
2019-02-15T06:05:11.984Z,3.57
2019-02-15T06:07:40.274Z,3.62
2019-02-15T06:10:08.808Z,3.66
2019-02-15T06:12:37.080Z,3.65
2019-02-15T06:15:14.893Z,3.57
2019-02-15T06:17:35.793Z,3.52
2019-02-15T06:20:04.035Z,3.48
2019-02-15T06:22:32.353Z,3.51
2019-02-15T06:25:00.614Z,3.53
2019-02-15T06:27:28.865Z,3.57
2019-02-15T06:29:57.143Z,3.61
2019-02-15T06:32:25.409Z,3.59
2019-02-15T06:34:53.696Z,3.52
2019-02-15T06:37:21.979Z,3.55
2019-02-15T06:39:50.229Z,3.56
2019-02-15T06:42:18.519Z,3.57
2019-02-15T06:44:46.781Z,3.58
2019-02-15T06:47:15.078Z,3.55
2019-02-15T06:49:43.330Z,3.55
2019-02-15T06:52:11.626Z,3.54
2019-02-15T06:54:39.880Z,3.57
2019-02-15T06:57:08.146Z,3.59
2019-02-15T06:59:43.648Z,3.64
2019-02-15T07:02:13.572Z,3.64
2019-02-15T07:04:43.477Z,3.62
2019-02-15T07:07:11.729Z,3.55
2019-02-15T07:09:40.009Z,3.60
2019-02-15T07:12:08.274Z,3.65
2019-02-15T07:14:36.577Z,3.70
2019-02-15T07:17:04.827Z,3.75
2019-02-15T07:19:33.093Z,3.75
2019-02-15T07:22:01.371Z,3.73
2019-02-15T07:24:29.629Z,3.75
2019-02-15T07:26:57.917Z,3.79
2019-02-15T07:29:26.210Z,3.76
2019-02-15T07:31:54.471Z,3.79
2019-02-15T07:34:22.743Z,3.84
2019-02-15T07:36:51.046Z,3.84
2019-02-15T07:39:19.302Z,3.88
2019-02-15T07:41:47.561Z,3.90
2019-02-15T07:44:15.835Z,3.96
2019-02-15T07:46:44.088Z,4.01
2019-02-15T07:49:12.372Z,4.02
2019-02-15T07:51:40.641Z,4.07
2019-02-15T07:54:08.935Z,4.10
2019-02-15T07:56:37.327Z,4.17
2019-02-15T07:59:05.595Z,4.22
2019-02-15T08:01:33.847Z,4.26
2019-02-15T08:04:02.136Z,4.31
2019-02-15T08:06:30.456Z,4.33
2019-02-15T08:08:58.711Z,4.34
2019-02-15T08:11:26.968Z,4.34
2019-02-15T08:13:55.258Z,4.37
2019-02-15T08:16:23.588Z,4.44
2019-02-15T08:18:51.872Z,4.52
2019-02-15T08:21:20.131Z,4.56
2019-02-15T08:23:48.466Z,4.59
2019-02-15T08:26:16.721Z,4.63
2019-02-15T08:28:44.984Z,4.67
2019-02-15T08:31:13.271Z,4.73
2019-02-15T08:33:41.528Z,4.64
2019-02-15T08:36:09.796Z,4.66
2019-02-15T08:38:38.056Z,4.69
2019-02-15T08:41:06.357Z,4.68
2019-02-15T08:43:34.775Z,4.66
2019-02-15T08:46:03.530Z,4.65
2019-02-15T08:48:33.167Z,4.71
2019-02-15T08:51:01.562Z,4.79
2019-02-15T08:53:30.136Z,4.87
2019-02-15T08:55:58.578Z,4.95
2019-02-15T08:58:27.009Z,4.97
2019-02-15T09:00:55.315Z,5.00
2019-02-15T09:03:23.575Z,5.04
2019-02-15T09:05:51.869Z,5.07
2019-02-15T09:08:20.164Z,5.16
2019-02-15T09:10:48.425Z,5.29
2019-02-15T09:13:16.712Z,5.41
2019-02-15T09:15:44.969Z,5.50
2019-02-15T09:18:13.245Z,5.60
2019-02-15T09:20:41.533Z,5.63
2019-02-15T09:23:09.787Z,5.64
2019-02-15T09:25:38.087Z,5.64
2019-02-15T09:28:13.744Z,5.62
2019-02-15T09:30:42.255Z,5.60
2019-02-15T09:33:10.515Z,5.55
2019-02-15T09:35:38.816Z,5.53
2019-02-15T09:38:07.081Z,5.51
2019-02-15T09:40:35.341Z,5.56
2019-02-15T09:43:03.641Z,5.63
2019-02-15T09:45:32.979Z,5.70
2019-02-15T09:48:01.336Z,5.80
2019-02-15T09:50:29.662Z,5.92
2019-02-15T09:52:57.921Z,6.02
2019-02-15T09:55:26.180Z,6.13
2019-02-15T09:57:54.464Z,6.17
2019-02-15T10:00:22.752Z,6.22
2019-02-15T10:02:51.012Z,6.30
2019-02-15T10:05:19.303Z,6.36
2019-02-15T10:07:47.559Z,6.45
2019-02-15T10:10:15.883Z,6.55
2019-02-15T10:12:44.138Z,6.59
2019-02-15T10:15:12.633Z,6.64
2019-02-15T10:17:40.929Z,6.65
2019-02-15T10:20:10.820Z,6.62
2019-02-15T10:22:39.130Z,6.65
2019-02-15T10:25:08.822Z,6.64
2019-02-15T10:27:37.117Z,6.68
2019-02-15T10:30:10.866Z,6.70
2019-02-15T10:32:39.138Z,6.71
2019-02-15T10:35:09.642Z,6.72
2019-02-15T10:37:37.912Z,6.74
2019-02-15T10:40:08.976Z,6.78
2019-02-15T10:42:37.261Z,6.80
2019-02-15T10:45:08.929Z,6.81
2019-02-15T10:47:37.207Z,6.83
2019-02-15T10:50:08.219Z,6.88
2019-02-15T10:52:36.495Z,6.90
2019-02-15T10:55:06.689Z,6.98
2019-02-15T10:57:34.973Z,7.04
2019-02-15T11:00:06.807Z,7.10
2019-02-15T11:02:35.123Z,7.17
2019-02-15T11:05:03.388Z,7.08
2019-02-15T11:07:31.640Z,7.01
2019-02-15T11:09:59.933Z,6.97
2019-02-15T11:12:28.188Z,7.03
2019-02-15T11:14:56.464Z,7.03
2019-02-15T11:17:24.721Z,7.04
2019-02-15T11:19:53.008Z,7.09
2019-02-15T11:22:21.264Z,7.09
2019-02-15T11:24:49.557Z,7.08
2019-02-15T11:27:17.813Z,7.01
2019-02-15T11:29:46.101Z,7.03
2019-02-15T11:32:14.351Z,7.10
2019-02-15T11:34:42.657Z,7.12
2019-02-15T11:37:10.925Z,7.05
2019-02-15T11:39:39.215Z,7.06
2019-02-15T11:42:07.479Z,7.09
2019-02-15T11:44:35.773Z,7.09
2019-02-15T11:47:04.035Z,7.09
2019-02-15T11:49:32.284Z,7.13
2019-02-15T11:52:00.555Z,7.19
2019-02-15T11:54:28.808Z,7.12
2019-02-15T11:56:57.102Z,7.10
2019-02-15T11:59:25.392Z,7.11
2019-02-15T12:01:53.724Z,7.09
2019-02-15T12:04:22.016Z,7.11
2019-02-15T12:06:50.258Z,7.14
2019-02-15T12:09:18.544Z,7.06
2019-02-15T12:11:46.796Z,7.04
2019-02-15T12:14:15.090Z,7.06
2019-02-15T12:16:43.351Z,7.02
2019-02-15T12:19:11.639Z,6.93
2019-02-15T12:21:39.893Z,6.90
2019-02-15T12:24:08.145Z,6.89
2019-02-15T12:26:36.427Z,6.89
2019-02-15T12:29:04.683Z,6.90
2019-02-15T12:31:32.969Z,6.86
2019-02-15T12:34:01.222Z,6.85
2019-02-15T12:36:29.500Z,6.88
2019-02-15T12:38:57.757Z,6.83
2019-02-15T12:41:26.054Z,6.81
2019-02-15T12:43:54.304Z,6.73
2019-02-15T12:46:22.563Z,6.69
2019-02-15T12:48:50.838Z,6.66
2019-02-15T12:51:19.125Z,6.68
2019-02-15T12:53:47.425Z,6.70
2019-02-15T12:56:15.670Z,6.79
2019-02-15T12:58:43.960Z,6.76
2019-02-15T13:01:12.216Z,6.79
2019-02-15T13:03:40.474Z,6.85
2019-02-15T13:06:08.759Z,6.87
2019-02-15T13:08:37.021Z,6.87
2019-02-15T13:11:05.308Z,6.82
2019-02-15T13:13:33.607Z,6.86
2019-02-15T13:16:01.864Z,6.93
2019-02-15T13:18:30.184Z,6.96
2019-02-15T13:20:58.444Z,6.98
2019-02-15T13:23:26.703Z,7.00
2019-02-15T13:25:55.055Z,7.03
2019-02-15T13:28:23.366Z,7.11
2019-02-15T13:30:51.622Z,7.14
2019-02-15T13:33:19.882Z,7.18
2019-02-15T13:35:48.157Z,7.27
2019-02-15T13:38:16.475Z,7.39
2019-02-15T13:40:44.947Z,7.58
2019-02-15T13:43:13.264Z,8.09
2019-02-15T13:45:41.558Z,9.20
2019-02-15T13:48:09.833Z,9.91
2019-02-15T13:50:38.109Z,10.32
2019-02-15T13:53:06.406Z,11.36
2019-02-15T13:55:34.666Z,12.37
2019-02-15T13:58:02.962Z,13.25
2019-02-15T14:00:31.218Z,13.74
2019-02-15T14:02:59.513Z,14.00
2019-02-15T14:05:27.783Z,14.43
2019-02-15T14:07:56.125Z,14.82
2019-02-15T14:10:24.383Z,14.82
2019-02-15T14:12:52.647Z,15.01
2019-02-15T14:15:20.927Z,14.97
2019-02-15T14:17:49.192Z,14.82
2019-02-15T14:20:17.586Z,14.67
2019-02-15T14:22:45.878Z,14.47
2019-02-15T14:25:14.162Z,14.60
2019-02-15T14:27:42.476Z,14.83
2019-02-15T14:30:12.087Z,14.83
2019-02-15T14:32:40.527Z,15.02
2019-02-15T14:35:10.316Z,14.98
2019-02-15T14:37:38.623Z,15.21
2019-02-15T14:40:11.661Z,15.22
2019-02-15T14:42:39.922Z,15.35
2019-02-15T14:45:10.398Z,15.30
2019-02-15T14:47:38.662Z,15.34
2019-02-15T14:50:08.699Z,15.05
2019-02-15T14:52:36.961Z,14.58
2019-02-15T14:55:07.294Z,13.94
2019-02-15T14:57:35.558Z,13.34
2019-02-15T15:00:04.722Z,12.67
2019-02-15T15:02:32.982Z,12.15
2019-02-15T15:05:01.287Z,11.71
2019-02-15T15:07:29.542Z,10.99
2019-02-15T15:09:57.799Z,10.41
2019-02-15T15:12:26.087Z,10.00
2019-02-15T15:14:54.337Z,9.49
2019-02-15T15:17:22.675Z,8.88
2019-02-15T15:19:50.918Z,8.46
2019-02-15T15:22:19.185Z,8.05
2019-02-15T15:24:47.481Z,7.68
2019-02-15T15:27:15.740Z,7.42
2019-02-15T15:29:44.008Z,7.27
2019-02-15T15:32:12.294Z,7.12
2019-02-15T15:34:40.546Z,6.95
2019-02-15T15:37:16.203Z,6.73
2019-02-15T15:39:38.850Z,6.57
2019-02-15T15:42:07.114Z,6.35
2019-02-15T15:44:35.412Z,6.23
2019-02-15T15:47:04.230Z,6.08
2019-02-15T15:49:32.525Z,5.94
2019-02-15T15:52:00.787Z,5.80
2019-02-15T15:54:29.116Z,5.68
2019-02-15T15:56:57.374Z,5.58
2019-02-15T15:59:25.665Z,5.45
2019-02-15T16:01:53.920Z,5.20
2019-02-15T16:04:22.190Z,5.04
2019-02-15T16:06:50.494Z,4.91
2019-02-15T16:09:18.746Z,4.80
2019-02-15T16:11:47.022Z,4.73
2019-02-15T16:14:15.273Z,4.60
2019-02-15T16:16:43.598Z,4.48
2019-02-15T16:19:11.828Z,4.29
2019-02-15T16:21:40.111Z,4.14
2019-02-15T16:24:12.666Z,4.04
2019-02-15T16:26:38.360Z,3.97
2019-02-15T16:29:06.630Z,3.86
2019-02-15T16:31:34.892Z,3.76
2019-02-15T16:34:03.186Z,3.67
2019-02-15T16:36:31.471Z,3.44
2019-02-15T16:38:59.728Z,3.33
2019-02-15T16:41:28.035Z,3.24
2019-02-15T16:43:56.300Z,3.20
2019-02-15T16:46:24.556Z,3.11
2019-02-15T16:48:52.850Z,3.08
2019-02-15T16:51:21.163Z,3.03
2019-02-15T16:53:49.424Z,2.98
2019-02-15T16:56:17.685Z,2.86
2019-02-15T16:58:46.092Z,2.75
2019-02-15T17:01:14.348Z,2.69
2019-02-15T17:03:42.608Z,2.63
2019-02-15T17:06:10.922Z,2.53
2019-02-15T17:08:39.177Z,2.47
2019-02-15T17:11:07.458Z,2.41
2019-02-15T17:13:35.750Z,2.39
2019-02-15T17:16:04.009Z,2.39
2019-02-15T17:18:32.276Z,2.36
2019-02-15T17:21:00.533Z,2.18
2019-02-15T17:23:28.833Z,2.05
2019-02-15T17:25:57.119Z,2.03
2019-02-15T17:28:25.424Z,2.01
2019-02-15T17:30:53.722Z,1.97
2019-02-15T17:33:21.984Z,1.92
2019-02-15T17:35:50.238Z,1.85
2019-02-15T17:38:18.506Z,1.76
2019-02-15T17:40:46.793Z,1.69
2019-02-15T17:43:15.074Z,1.67
2019-02-15T17:45:43.327Z,1.57
2019-02-15T17:48:11.622Z,1.51
2019-02-15T17:50:39.881Z,1.48
2019-02-15T17:53:08.201Z,1.43
2019-02-15T17:55:36.456Z,1.38
2019-02-15T17:58:04.783Z,1.33
2019-02-15T18:00:33.297Z,1.30
2019-02-15T18:03:01.645Z,1.30
2019-02-15T18:05:29.894Z,1.25
2019-02-15T18:07:58.188Z,1.22
2019-02-15T18:10:26.449Z,1.15
2019-02-15T18:12:54.718Z,1.16
2019-02-15T18:15:23.024Z,1.16
2019-02-15T18:17:51.309Z,1.14
2019-02-15T18:20:19.593Z,1.10
2019-02-15T18:22:47.930Z,1.08
2019-02-15T18:25:16.226Z,1.03
2019-02-15T18:27:44.496Z,0.99
2019-02-15T18:30:14.911Z,0.93
2019-02-15T18:32:43.230Z,0.88
2019-02-15T18:35:11.469Z,0.85
2019-02-15T18:37:39.740Z,0.82
2019-02-15T18:40:09.841Z,0.79
2019-02-15T18:42:38.132Z,0.77
2019-02-15T18:45:16.762Z,0.72
2019-02-15T18:47:45.051Z,0.66
2019-02-15T18:50:13.336Z,0.59
2019-02-15T18:52:41.591Z,0.59
2019-02-15T18:55:10.921Z,0.59
2019-02-15T18:57:39.182Z,0.59
2019-02-15T19:00:14.787Z,0.53
2019-02-15T19:02:45.105Z,0.53
2019-02-15T19:05:13.900Z,0.49
2019-02-15T19:07:42.160Z,0.45
2019-02-15T19:10:15.788Z,0.42
2019-02-15T19:12:44.049Z,0.35
2019-02-15T19:15:14.486Z,0.30
2019-02-15T19:17:42.743Z,0.26
2019-02-15T19:20:13.384Z,0.26
2019-02-15T19:22:41.637Z,0.24
2019-02-15T19:25:14.804Z,0.23
2019-02-15T19:27:43.124Z,0.20
2019-02-15T19:30:16.797Z,0.20
2019-02-15T19:32:45.126Z,0.25
2019-02-15T19:35:13.409Z,0.22
2019-02-15T19:37:41.684Z,0.25
2019-02-15T19:40:12.472Z,0.27
2019-02-15T19:42:42.166Z,0.27
2019-02-15T19:45:11.904Z,0.24
2019-02-15T19:47:40.163Z,0.24
2019-02-15T19:50:11.195Z,0.28
2019-02-15T19:52:39.690Z,0.28
2019-02-15T19:55:09.529Z,0.27
2019-02-15T19:57:37.797Z,0.26
2019-02-15T20:00:14.657Z,0.29
2019-02-15T20:02:42.918Z,0.28
2019-02-15T20:05:11.182Z,0.27
2019-02-15T20:07:39.489Z,0.29
2019-02-15T20:10:10.697Z,0.32
2019-02-15T20:12:39.064Z,0.28
2019-02-15T20:15:10.306Z,0.27
2019-02-15T20:17:38.590Z,0.29
2019-02-15T20:20:11.976Z,0.30
2019-02-15T20:22:40.267Z,0.30
2019-02-15T20:25:10.666Z,0.25
2019-02-15T20:27:39.146Z,0.30
2019-02-15T20:30:15.655Z,0.28
2019-02-15T20:32:43.945Z,0.27
2019-02-15T20:35:13.609Z,0.18
2019-02-15T20:37:41.952Z,0.31
2019-02-15T20:40:11.589Z,0.34
2019-02-15T20:42:39.830Z,0.31
2019-02-15T20:45:17.128Z,0.28
2019-02-15T20:47:45.395Z,0.26
2019-02-15T20:50:14.193Z,0.30
2019-02-15T20:52:42.511Z,0.32
2019-02-15T20:55:13.107Z,0.34
2019-02-15T20:57:41.359Z,0.36
2019-02-15T21:00:15.948Z,0.35
2019-02-15T21:02:44.204Z,0.34
2019-02-15T21:05:12.459Z,0.35
2019-02-15T21:07:40.763Z,0.35
2019-02-15T21:10:11.369Z,0.30
2019-02-15T21:12:45.917Z,0.27
2019-02-15T21:15:17.009Z,0.22
2019-02-15T21:17:45.295Z,0.17
2019-02-15T21:20:14.694Z,0.12
2019-02-15T21:22:42.949Z,0.07
2019-02-15T21:25:12.976Z,0.10
2019-02-15T21:27:41.238Z,0.14
2019-02-15T21:30:11.969Z,0.16
2019-02-15T21:32:40.228Z,0.19
2019-02-15T21:35:08.525Z,0.20
2019-02-15T21:37:36.781Z,0.24
2019-02-15T21:40:08.505Z,0.24
2019-02-15T21:43:13.025Z,0.27
2019-02-15T21:45:41.584Z,0.28
2019-02-15T21:48:09.964Z,0.31
2019-02-15T21:50:38.351Z,0.33
2019-02-15T21:53:06.680Z,0.31
2019-02-15T21:55:35.016Z,0.29
2019-02-15T21:58:03.302Z,0.27
2019-02-15T22:00:31.608Z,0.25
2019-02-15T22:03:00.173Z,0.22
2019-02-15T22:05:28.606Z,0.12
2019-02-15T22:07:57.122Z,0.14
2019-02-15T22:10:25.692Z,0.14
2019-02-15T22:12:54.360Z,0.15
2019-02-15T22:15:22.814Z,0.14
2019-02-15T22:17:51.330Z,0.12
2019-02-15T22:20:26.336Z,0.09
2019-02-15T22:22:50.108Z,0.07
2019-02-15T22:25:18.435Z,0.08
2019-02-15T22:27:46.686Z,0.10
2019-02-15T22:30:19.983Z,0.13
2019-02-15T22:32:48.265Z,0.15
2019-02-15T22:35:16.533Z,0.17
2019-02-15T22:37:44.805Z,0.20
2019-02-15T22:40:33.271Z,0.23
2019-02-15T22:43:10.813Z,0.22
2019-02-15T22:45:39.112Z,0.25
2019-02-15T22:48:07.439Z,0.26
2019-02-15T22:50:36.482Z,0.26
2019-02-15T22:53:04.873Z,0.26
2019-02-15T22:55:33.173Z,0.27
2019-02-15T22:58:01.501Z,0.28
2019-02-15T23:00:40.593Z,0.31
2019-02-15T23:03:08.935Z,0.24
2019-02-15T23:05:37.267Z,0.19
2019-02-15T23:08:05.556Z,0.18
2019-02-15T23:10:33.812Z,0.18
2019-02-15T23:13:02.114Z,0.19
2019-02-15T23:15:30.377Z,0.12
2019-02-15T23:17:58.678Z,0.04
2019-02-15T23:20:26.979Z,0.04
2019-02-15T23:22:55.298Z,0.05
2019-02-15T23:25:24.991Z,0.07
2019-02-15T23:27:53.508Z,0.07
2019-02-15T23:30:21.808Z,0.08
2019-02-15T23:32:50.078Z,0.09
2019-02-15T23:35:18.350Z,0.07
2019-02-15T23:37:47.180Z,0.11
2019-02-15T23:40:15.488Z,0.10
2019-02-15T23:42:43.781Z,0.08
2019-02-15T23:45:12.062Z,0.12
2019-02-15T23:47:40.325Z,0.10
2019-02-15T23:50:09.181Z,0.15
2019-02-15T23:52:37.438Z,0.16
2019-02-15T23:55:06.101Z,0.12
2019-02-15T23:57:34.374Z,0.11
